Time;durP1;ratioP1;P1;durP2;ratioP2;P2;SDS_P1;SDS_P2;PMS_P1;PMS_P2;Temp;Humidity;BMP_temperature;BMP_pressure;BME280_temperature;BME280_humidity;BME280_pressure;Samples;Min_cycle;Max_cycle;Signal;HPM_P1;HPM_P2
2021/12/11 00:00:14;;;;;;;9.93;8.98;;;;;;;;;;5849718;24;32456;-68
2021/12/11 00:02:45;;;;;;;9.98;9.13;;;;;;;;;;5826378;24;32416;-68
2021/12/11 00:05:17;;;;;;;9.88;9.10;;;;;;;;;;5850004;24;32340;-68
2021/12/11 00:07:45;;;;;;;10.13;8.95;;;;;;;;;;5849941;24;32448;-68
2021/12/11 00:10:19;;;;;;;10.00;8.88;;;;;;;;;;5849404;24;34590;-67
2021/12/11 00:12:51;;;;;;;9.88;8.95;;;;;;;;;;5849085;24;32365;-67
2021/12/11 00:15:23;;;;;;;9.85;8.95;;;;;;;;;;5850232;24;32435;-67
2021/12/11 00:17:59;;;;;;;10.02;9.18;;;;;;;;;;5849762;24;31900;-68
2021/12/11 00:20:32;;;;;;;10.00;9.18;;;;;;;;;;5848957;24;34593;-68
2021/12/11 00:23:01;;;;;;;10.40;9.20;;;;;;;;;;5849830;24;32332;-67
2021/12/11 00:25:31;;;;;;;10.95;9.63;;;;;;;;;;5849210;24;32369;-67
2021/12/11 00:28:05;;;;;;;9.98;9.07;;;;;;;;;;5849301;24;32278;-67
2021/12/11 00:30:39;;;;;;;10.40;9.43;;;;;;;;;;5849797;24;32164;-68
2021/12/11 00:33:11;;;;;;;10.68;9.70;;;;;;;;;;5849977;24;33888;-68
2021/12/11 00:35:39;;;;;;;9.48;8.77;;;;;;;;;;5849404;24;32378;-68
2021/12/11 00:38:12;;;;;;;9.93;9.05;;;;;;;;;;5849840;24;32390;-67
2021/12/11 00:40:45;;;;;;;9.27;8.57;;;;;;;;;;5849488;24;32374;-67
2021/12/11 00:43:17;;;;;;;10.30;9.23;;;;;;;;;;5848555;24;34071;-67
2021/12/11 00:45:49;;;;;;;14.05;12.57;;;;;;;;;;5849719;24;32276;-67
2021/12/11 00:48:21;;;;;;;15.00;13.25;;;;;;;;;;5846989;24;32539;-68
2021/12/11 00:50:54;;;;;;;17.13;14.05;;;;;;;;;;5847186;24;32387;-67
2021/12/11 00:53:26;;;;;;;16.83;15.13;;;;;;;;;;5849602;24;32443;-68
2021/12/11 00:56:00;;;;;;;27.38;18.73;;;;;;;;;;5843041;24;34625;-67
2021/12/11 00:58:31;;;;;;;21.38;16.42;;;;;;;;;;5848438;24;32253;-68
2021/12/11 01:01:02;;;;;;;16.98;15.27;;;;;;;;;;5849180;24;32436;-67
2021/12/11 01:03:34;;;;;;;19.27;14.32;;;;;;;;;;5849035;24;32154;-68
2021/12/11 01:06:09;;;;;;;14.45;13.02;;;;;;;;;;5848951;24;34071;-67
2021/12/11 01:08:41;;;;;;;13.60;12.30;;;;;;;;;;5848152;24;32408;-68
2021/12/11 01:11:20;;;;;;;16.33;14.23;;;;;;;;;;5849169;24;32883;-67
2021/12/11 01:13:59;;;;;;;14.13;12.68;;;;;;;;;;5849275;24;32333;-67
2021/12/11 01:16:27;;;;;;;12.70;11.52;;;;;;;;;;5849226;24;32265;-68
2021/12/11 01:19:01;;;;;;;12.88;11.50;;;;;;;;;;5848219;24;34087;-68
2021/12/11 01:21:44;;;;;;;12.98;11.40;;;;;;;;;;5849675;24;32476;-68
2021/12/11 01:24:28;;;;;;;11.77;10.68;;;;;;;;;;5849201;24;32484;-68
2021/12/11 01:27:01;;;;;;;10.13;9.30;;;;;;;;;;5848492;24;32266;-67
2021/12/11 01:29:31;;;;;;;10.25;9.30;;;;;;;;;;5848730;24;34698;-68
2021/12/11 01:32:00;;;;;;;10.18;9.27;;;;;;;;;;5849233;24;32321;-68
2021/12/11 01:34:31;;;;;;;10.60;9.80;;;;;;;;;;5847993;24;32371;-68
2021/12/11 01:37:01;;;;;;;9.65;8.85;;;;;;;;;;5849640;24;32357;-68
2021/12/11 01:39:33;;;;;;;8.88;8.07;;;;;;;;;;5848906;24;32447;-68
2021/12/11 01:42:08;;;;;;;8.95;8.25;;;;;;;;;;5848525;24;34607;-68
2021/12/11 01:44:40;;;;;;;9.63;8.80;;;;;;;;;;5848508;24;32317;-68
2021/12/11 01:47:12;;;;;;;8.98;8.13;;;;;;;;;;5849305;24;32247;-68
2021/12/11 01:49:43;;;;;;;9.77;9.05;;;;;;;;;;5849190;24;32143;-68
2021/12/11 01:52:15;;;;;;;9.13;8.23;;;;;;;;;;5848957;24;33978;-68
2021/12/11 01:54:47;;;;;;;11.80;10.80;;;;;;;;;;5848477;24;32602;-68
2021/12/11 01:57:22;;;;;;;17.25;15.38;;;;;;;;;;5845941;24;32275;-68
2021/12/11 01:59:56;;;;;;;20.20;15.88;;;;;;;;;;5849223;24;32467;-68
2021/12/11 02:02:30;;;;;;;17.55;15.52;;;;;;;;;;5848113;24;32291;-69
2021/12/11 02:04:58;;;;;;;16.90;14.15;;;;;;;;;;5845820;24;34759;-68
2021/12/11 02:07:29;;;;;;;16.67;14.30;;;;;;;;;;5849020;24;32562;-68
2021/12/11 02:09:59;;;;;;;14.98;13.57;;;;;;;;;;5849314;24;32225;-69
2021/12/11 02:12:37;;;;;;;16.60;14.35;;;;;;;;;;5848900;24;32446;-69
2021/12/11 02:15:08;;;;;;;18.60;16.27;;;;;;;;;;5849076;24;34595;-69
2021/12/11 02:17:44;;;;;;;20.17;16.80;;;;;;;;;;5848873;24;32711;-68
2021/12/11 02:20:20;;;;;;;18.27;14.63;;;;;;;;;;5849313;24;32445;-68
2021/12/11 02:22:52;;;;;;;14.75;13.25;;;;;;;;;;5848714;24;32381;-69
2021/12/11 02:25:24;;;;;;;13.07;11.95;;;;;;;;;;5848736;24;32302;-69
2021/12/11 02:27:55;;;;;;;11.82;10.63;;;;;;;;;;5848481;24;34091;-68
2021/12/11 02:30:29;;;;;;;12.18;11.13;;;;;;;;;;5848470;24;32486;-69
2021/12/11 02:33:08;;;;;;;10.15;9.25;;;;;;;;;;5848526;24;32308;-69
2021/12/11 02:35:44;;;;;;;9.40;8.50;;;;;;;;;;5849166;24;32428;-69
2021/12/11 02:38:20;;;;;;;9.95;9.02;;;;;;;;;;5848921;24;34939;-67
2021/12/11 02:40:55;;;;;;;9.20;8.30;;;;;;;;;;5847897;24;32298;-68
2021/12/11 02:43:29;;;;;;;8.73;8.13;;;;;;;;;;5848941;24;32305;-68
2021/12/11 02:46:05;;;;;;;7.60;7.10;;;;;;;;;;5849217;24;32059;-68
2021/12/11 02:48:39;;;;;;;7.82;7.22;;;;;;;;;;5848413;24;32125;-68
2021/12/11 02:51:13;;;;;;;7.40;6.80;;;;;;;;;;5848728;24;34568;-68
2021/12/11 02:53:46;;;;;;;7.32;6.80;;;;;;;;;;5849569;24;32315;-68
2021/12/11 02:56:19;;;;;;;7.72;6.90;;;;;;;;;;5847948;24;32329;-69
2021/12/11 02:58:56;;;;;;;8.05;7.35;;;;;;;;;;5848626;24;32491;-69
2021/12/11 03:01:29;;;;;;;7.05;6.50;;;;;;;;;;5848359;24;33995;-68
2021/12/11 03:04:10;;;;;;;7.68;6.97;;;;;;;;;;5847918;24;32266;-68
2021/12/11 03:06:42;;;;;;;7.78;7.18;;;;;;;;;;5848483;24;32256;-69
2021/12/11 03:09:18;;;;;;;7.68;7.18;;;;;;;;;;5845226;24;32235;-68
2021/12/11 03:11:48;;;;;;;10.18;9.18;;;;;;;;;;5848284;24;32395;-68
2021/12/11 03:14:18;;;;;;;10.02;9.02;;;;;;;;;;5847626;24;34707;-68
2021/12/11 03:16:48;;;;;;;10.48;9.57;;;;;;;;;;5848176;24;32409;-67
2021/12/11 03:19:21;;;;;;;13.77;9.40;;;;;;;;;;5847986;24;32536;-68
2021/12/11 03:21:50;;;;;;;12.02;9.18;;;;;;;;;;5849071;24;32332;-69
2021/12/11 03:24:20;;;;;;;10.50;9.70;;;;;;;;;;5848045;24;35479;-68
2021/12/11 03:26:51;;;;;;;9.70;8.90;;;;;;;;;;5848506;24;32452;-69
2021/12/11 03:29:20;;;;;;;9.27;8.57;;;;;;;;;;5848446;24;32504;-69
2021/12/11 03:31:48;;;;;;;9.18;8.38;;;;;;;;;;5847403;24;32307;-68
2021/12/11 03:34:20;;;;;;;8.30;7.60;;;;;;;;;;5848864;24;32247;-68
2021/12/11 03:36:49;;;;;;;8.38;7.63;;;;;;;;;;5849948;24;35554;-69
2021/12/11 03:39:22;;;;;;;9.60;7.85;;;;;;;;;;5849291;24;32343;-69
2021/12/11 03:41:53;;;;;;;8.85;8.15;;;;;;;;;;5849637;24;32494;-68
2021/12/11 03:44:22;;;;;;;8.38;7.68;;;;;;;;;;5850251;24;32627;-68
2021/12/11 03:46:54;;;;;;;8.95;7.60;;;;;;;;;;5849409;24;35142;-69
2021/12/11 03:49:23;;;;;;;8.20;7.50;;;;;;;;;;5849120;24;32691;-69
2021/12/11 03:51:54;;;;;;;8.23;7.43;;;;;;;;;;5848363;24;32455;-69
2021/12/11 03:54:28;;;;;;;8.30;7.38;;;;;;;;;;5848186;24;32349;-68
2021/12/11 03:56:57;;;;;;;10.43;8.00;;;;;;;;;;5849924;24;32392;-68
2021/12/11 03:59:27;;;;;;;7.38;6.78;;;;;;;;;;5847031;24;35708;-68
2021/12/11 04:02:03;;;;;;;8.18;7.25;;;;;;;;;;5847566;24;32384;-69
2021/12/11 04:04:36;;;;;;;8.23;7.63;;;;;;;;;;5848376;24;32332;-68
2021/12/11 04:07:08;;;;;;;8.15;7.55;;;;;;;;;;5849859;24;32357;-68
2021/12/11 04:09:37;;;;;;;;;;;;;;;;;;5850025;24;34056;-69
2021/12/11 04:12:08;;;;;;;7.65;6.95;;;;;;;;;;5849738;24;32480;-69
2021/12/11 04:14:41;;;;;;;9.70;6.95;;;;;;;;;;5849903;24;32371;-69
2021/12/11 04:17:12;;;;;;;7.95;7.20;;;;;;;;;;5843571;24;32462;-69
2021/12/11 04:19:40;;;;;;;8.88;6.75;;;;;;;;;;5849499;24;32362;-68
2021/12/11 04:22:09;;;;;;;8.38;7.63;;;;;;;;;;5849098;24;35569;-68
2021/12/11 04:24:42;;;;;;;7.13;6.53;;;;;;;;;;5849110;24;32560;-67
2021/12/11 04:27:13;;;;;;;7.20;6.53;;;;;;;;;;5848731;24;32307;-68
2021/12/11 04:29:42;;;;;;;9.90;7.35;;;;;;;;;;5849060;24;32704;-69
2021/12/11 04:32:11;;;;;;;7.13;6.53;;;;;;;;;;5848740;24;34831;-68
2021/12/11 04:34:39;;;;;;;6.40;5.90;;;;;;;;;;5848973;24;32444;-68
2021/12/11 04:37:16;;;;;;;7.72;7.13;;;;;;;;;;5849278;24;32267;-68
2021/12/11 04:39:50;;;;;;;6.90;6.40;;;;;;;;;;5848727;24;32434;-68
2021/12/11 04:42:32;;;;;;;7.22;6.53;;;;;;;;;;5849666;24;32378;-70
2021/12/11 04:45:00;;;;;;;7.10;6.60;;;;;;;;;;5849319;24;35401;-68
2021/12/11 04:47:36;;;;;;;6.78;6.28;;;;;;;;;;5849134;24;32318;-69
2021/12/11 04:50:17;;;;;;;7.45;6.85;;;;;;;;;;5849373;24;32434;-69
2021/12/11 04:52:54;;;;;;;12.32;7.68;;;;;;;;;;5848648;24;32146;-68
2021/12/11 04:58:38;;;;;;;7.43;6.82;;;;;;;;;;5847242;24;32314;-71
2021/12/11 05:01:25;;;;;;;7.72;7.03;;;;;;;;;;5849125;24;32452;-71
2021/12/11 05:04:16;;;;;;;8.60;7.00;;;;;;;;;;5849931;24;32412;-70
2021/12/11 05:06:53;;;;;;;7.78;7.07;;;;;;;;;;5849618;24;32056;-68
2021/12/11 05:09:32;;;;;;;7.07;6.57;;;;;;;;;;5848628;24;34397;-70
2021/12/11 05:12:12;;;;;;;7.18;6.53;;;;;;;;;;5849047;24;32269;-67
2021/12/11 05:14:41;;;;;;;7.60;6.95;;;;;;;;;;5848933;24;32333;-65
2021/12/11 05:17:10;;;;;;;10.43;7.80;;;;;;;;;;5848895;24;32752;-67
2021/12/11 05:19:40;;;;;;;10.15;7.28;;;;;;;;;;5845849;24;34803;-64
2021/12/11 05:22:09;;;;;;;9.48;7.78;;;;;;;;;;5849161;24;32346;-63
2021/12/11 05:24:41;;;;;;;7.03;6.40;;;;;;;;;;5848439;24;32490;-65
2021/12/11 05:27:10;;;;;;;;;;;;;;;;;;5847961;24;32905;-66
2021/12/11 05:29:39;;;;;;;8.43;7.18;;;;;;;;;;5848788;24;32183;-67
2021/12/11 05:32:11;;;;;;;8.60;7.80;;;;;;;;;;5848147;24;35086;-66
2021/12/11 05:34:39;;;;;;;7.43;6.82;;;;;;;;;;5849535;24;32437;-69
2021/12/11 05:37:07;;;;;;;7.95;7.25;;;;;;;;;;5848994;24;32285;-69
2021/12/11 05:39:36;;;;;;;9.88;8.20;;;;;;;;;;5847977;24;32706;-69
2021/12/11 05:42:05;;;;;;;9.50;8.48;;;;;;;;;;5846788;24;63024;-69
2021/12/11 05:44:34;;;;;;;7.78;7.18;;;;;;;;;;5844624;24;32395;-68
2021/12/11 05:47:03;;;;;;;10.23;7.15;;;;;;;;;;5843895;24;32476;-69
2021/12/11 05:49:33;;;;;;;9.43;7.13;;;;;;;;;;5848390;24;32318;-68
2021/12/11 05:52:04;;;;;;;9.63;7.57;;;;;;;;;;5845675;24;32484;-69
2021/12/11 05:54:32;;;;;;;10.70;6.75;;;;;;;;;;5847320;24;34180;-69
2021/12/11 05:57:06;;;;;;;10.73;7.30;;;;;;;;;;5847921;24;32391;-69
2021/12/11 05:59:36;;;;;;;8.30;7.70;;;;;;;;;;5847838;24;32364;-68
2021/12/11 06:02:14;;;;;;;10.18;7.55;;;;;;;;;;5848128;24;32376;-68
2021/12/11 06:04:44;;;;;;;8.48;7.70;;;;;;;;;;5848243;24;34018;-69
2021/12/11 06:07:14;;;;;;;10.32;8.40;;;;;;;;;;5847659;24;32336;-69
2021/12/11 06:09:48;;;;;;;9.38;8.43;;;;;;;;;;5848480;24;32433;-69
2021/12/11 06:12:19;;;;;;;9.68;8.77;;;;;;;;;;5848604;24;32294;-69
2021/12/11 06:14:51;;;;;;;8.50;7.67;;;;;;;;;;5847919;24;32347;-69
2021/12/11 06:17:22;;;;;;;9.35;8.52;;;;;;;;;;5848340;24;34145;-69
2021/12/11 06:19:52;;;;;;;10.88;8.77;;;;;;;;;;5848229;24;32313;-71
2021/12/11 06:22:24;;;;;;;9.13;8.23;;;;;;;;;;5847950;24;32400;-70
2021/12/11 06:24:52;;;;;;;8.63;7.90;;;;;;;;;;5849136;24;32270;-69
2021/12/11 06:27:21;;;;;;;12.32;7.82;;;;;;;;;;5848145;24;34200;-69
2021/12/11 06:29:51;;;;;;;9.75;8.77;;;;;;;;;;5844941;24;32409;-68
2021/12/11 06:32:21;;;;;;;9.32;8.48;;;;;;;;;;5847689;24;32411;-69
2021/12/11 06:34:49;;;;;;;10.20;8.98;;;;;;;;;;5844074;24;32527;-69
2021/12/11 06:37:20;;;;;;;15.32;9.20;;;;;;;;;;5848309;24;32162;-69
2021/12/11 06:39:49;;;;;;;8.88;8.07;;;;;;;;;;5848130;24;35201;-70
2021/12/11 06:42:18;;;;;;;12.63;9.70;;;;;;;;;;5847369;24;32392;-69
2021/12/11 06:44:47;;;;;;;10.77;9.43;;;;;;;;;;5846865;24;32508;-70
2021/12/11 06:47:17;;;;;;;11.77;9.25;;;;;;;;;;5848372;24;32424;-69
2021/12/11 06:49:46;;;;;;;11.05;8.77;;;;;;;;;;5848436;24;36391;-68
2021/12/11 06:52:17;;;;;;;10.85;8.65;;;;;;;;;;5847678;24;32369;-68
2021/12/11 06:54:46;;;;;;;8.93;8.13;;;;;;;;;;5847794;24;32707;-68
2021/12/11 06:57:14;;;;;;;9.57;8.77;;;;;;;;;;5846639;24;32798;-68
2021/12/11 06:59:42;;;;;;;13.43;8.98;;;;;;;;;;5845978;24;32556;-69
2021/12/11 07:02:10;;;;;;;11.20;8.65;;;;;;;;;;5847414;24;34342;-69
2021/12/11 07:04:40;;;;;;;8.68;8.02;;;;;;;;;;5848084;24;32328;-68
2021/12/11 07:07:08;;;;;;;8.98;8.10;;;;;;;;;;5847896;24;32401;-69
2021/12/11 07:09:37;;;;;;;10.60;9.50;;;;;;;;;;5848489;24;32435;-68
2021/12/11 07:12:07;;;;;;;10.15;9.02;;;;;;;;;;5849909;24;34163;-68
2021/12/11 07:14:35;;;;;;;9.75;8.77;;;;;;;;;;5849713;24;32868;-68
2021/12/11 07:17:03;;;;;;;8.98;8.13;;;;;;;;;;5850249;24;32415;-68
2021/12/11 07:19:31;;;;;;;10.02;9.00;;;;;;;;;;5849433;24;32390;-68
2021/12/11 07:22:01;;;;;;;9.60;7.97;;;;;;;;;;5849800;24;32401;-69
2021/12/11 07:24:36;;;;;;;9.43;8.32;;;;;;;;;;5849247;24;32469;-67
2021/12/11 07:27:08;;;;;;;9.38;8.48;;;;;;;;;;5849833;24;32282;-69
2021/12/11 07:29:40;;;;;;;11.80;8.32;;;;;;;;;;5849346;24;32452;-69
2021/12/11 07:32:11;;;;;;;8.73;7.95;;;;;;;;;;5849716;24;32349;-69
2021/12/11 07:34:39;;;;;;;10.32;8.80;;;;;;;;;;5849724;24;33944;-68
2021/12/11 07:37:09;;;;;;;9.43;8.50;;;;;;;;;;5846817;24;32155;-68
2021/12/11 07:39:38;;;;;;;10.45;8.80;;;;;;;;;;5849625;24;32182;-68
2021/12/11 07:42:07;;;;;;;8.55;7.72;;;;;;;;;;5849594;24;32381;-70
2021/12/11 07:44:35;;;;;;;9.93;8.80;;;;;;;;;;5849430;24;32074;-67
2021/12/11 07:47:05;;;;;;;8.93;8.13;;;;;;;;;;5845839;24;32245;-67
2021/12/11 07:49:33;;;;;;;14.00;8.77;;;;;;;;;;5849718;24;32239;-69
2021/12/11 07:52:01;;;;;;;8.25;7.45;;;;;;;;;;5849359;24;32333;-69
2021/12/11 07:54:31;;;;;;;11.93;7.93;;;;;;;;;;5847962;24;32483;-68
2021/12/11 07:56:59;;;;;;;9.02;8.00;;;;;;;;;;5849061;24;34988;-68
2021/12/11 07:59:27;;;;;;;9.07;8.38;;;;;;;;;;5849024;24;32337;-68
2021/12/11 08:01:56;;;;;;;9.90;7.60;;;;;;;;;;5849394;24;32685;-68
2021/12/11 08:04:25;;;;;;;9.23;8.43;;;;;;;;;;5848625;24;32356;-68
2021/12/11 08:06:54;;;;;;;11.57;8.85;;;;;;;;;;5848600;24;32481;-68
2021/12/11 08:09:24;;;;;;;12.00;8.45;;;;;;;;;;5848802;24;32495;-68
2021/12/11 08:11:54;;;;;;;12.65;8.52;;;;;;;;;;5849171;24;32378;-68
2021/12/11 08:14:23;;;;;;;9.95;8.65;;;;;;;;;;5848613;24;32330;-68
2021/12/11 08:16:54;;;;;;;9.00;8.10;;;;;;;;;;5848387;24;32384;-68
2021/12/11 08:19:25;;;;;;;11.20;8.65;;;;;;;;;;5848749;24;34704;-69
2021/12/11 08:21:57;;;;;;;11.32;9.25;;;;;;;;;;5848901;24;32312;-68
2021/12/11 08:24:27;;;;;;;9.63;8.82;;;;;;;;;;5849866;24;32306;-68
2021/12/11 08:27:01;;;;;;;10.23;9.32;;;;;;;;;;5848581;24;32288;-68
2021/12/11 08:29:29;;;;;;;12.77;8.98;;;;;;;;;;5849525;24;32750;-68
2021/12/11 08:31:59;;;;;;;9.63;8.57;;;;;;;;;;5849169;24;32452;-68
2021/12/11 08:34:28;;;;;;;10.40;9.10;;;;;;;;;;5848849;24;32410;-68
2021/12/11 08:36:57;;;;;;;10.13;8.23;;;;;;;;;;5846921;24;32559;-69
2021/12/11 08:39:27;;;;;;;10.05;9.13;;;;;;;;;;5849338;24;32792;-68
2021/12/11 08:41:58;;;;;;;9.32;8.55;;;;;;;;;;5848830;24;34594;-68
2021/12/11 08:44:28;;;;;;;8.98;7.43;;;;;;;;;;5848996;24;32292;-68
2021/12/11 08:47:01;;;;;;;12.73;8.85;;;;;;;;;;5849153;24;32217;-69
2021/12/11 08:49:32;;;;;;;8.40;7.32;;;;;;;;;;5846619;24;32386;-69
2021/12/11 08:52:06;;;;;;;11.85;8.18;;;;;;;;;;5849484;24;32415;-68
2021/12/11 08:54:36;;;;;;;10.50;8.75;;;;;;;;;;5845845;24;32289;-68
2021/12/11 08:57:09;;;;;;;9.93;7.35;;;;;;;;;;5848711;24;32136;-69
2021/12/11 08:59:42;;;;;;;9.32;8.43;;;;;;;;;;5846979;24;32682;-68
2021/12/11 09:02:14;;;;;;;14.13;8.27;;;;;;;;;;5848649;24;32441;-68
2021/12/11 09:04:48;;;;;;;10.70;7.65;;;;;;;;;;5847369;24;35127;-68
2021/12/11 09:07:21;;;;;;;9.77;8.30;;;;;;;;;;5848817;24;32523;-68
2021/12/11 09:09:54;;;;;;;7.60;6.82;;;;;;;;;;5849027;24;32240;-67
2021/12/11 09:12:29;;;;;;;8.45;7.63;;;;;;;;;;5847478;24;32430;-67
2021/12/11 09:15:01;;;;;;;9.25;8.35;;;;;;;;;;5848710;24;32183;-69
2021/12/11 09:17:35;;;;;;;9.90;7.85;;;;;;;;;;5848682;24;32468;-68
2021/12/11 09:20:09;;;;;;;8.35;7.57;;;;;;;;;;5848883;24;32480;-71
2021/12/11 09:22:42;;;;;;;11.13;7.57;;;;;;;;;;5849448;24;32321;-68
2021/12/11 09:25:16;;;;;;;8.82;7.55;;;;;;;;;;5848247;24;32255;-69
2021/12/11 09:27:55;;;;;;;8.13;7.32;;;;;;;;;;5847563;24;35045;-68
2021/12/11 09:30:29;;;;;;;7.90;7.15;;;;;;;;;;5848641;24;32301;-68
2021/12/11 09:33:03;;;;;;;8.32;7.60;;;;;;;;;;5848371;24;32180;-68
2021/12/11 09:35:35;;;;;;;7.80;7.20;;;;;;;;;;5848423;24;32305;-68
2021/12/11 09:38:07;;;;;;;;;;;;;;;;;;5849198;24;34052;-68
2021/12/11 09:40:55;;;;;;;;;;;;;;;;;;5849663;24;32310;-68
2021/12/11 09:43:44;;;;;;;8.38;7.53;;;;;;;;;;5848018;24;32343;-68
2021/12/11 09:46:17;;;;;;;8.23;7.43;;;;;;;;;;5848887;24;32313;-67
2021/12/11 09:48:47;;;;;;;9.77;7.07;;;;;;;;;;5847920;24;32706;-68
2021/12/11 09:51:19;;;;;;;8.18;7.35;;;;;;;;;;5848401;24;34936;-68
2021/12/11 09:53:53;;;;;;;10.20;7.07;;;;;;;;;;5848688;24;32049;-68
2021/12/11 09:56:27;;;;;;;9.90;6.95;;;;;;;;;;5848376;24;32333;-68
2021/12/11 09:58:58;;;;;;;9.27;7.45;;;;;;;;;;5846060;24;32287;-68
2021/12/11 10:01:29;;;;;;;7.63;6.82;;;;;;;;;;5848882;24;35319;-67
2021/12/11 10:04:02;;;;;;;7.53;6.82;;;;;;;;;;5847293;24;32395;-69
2021/12/11 10:06:42;;;;;;;9.98;6.95;;;;;;;;;;5848325;24;32318;-67
2021/12/11 10:20:34;;;;;;;7.90;7.18;;;;;;;;;;4251281;33;32538;-68
2021/12/11 10:23:05;;;;;;;13.85;6.57;;;;;;;;;;4850907;23;32662;-68
2021/12/11 10:25:36;;;;;;;8.57;6.83;;;;;;;;;;4816901;29;33976;-69
2021/12/11 10:28:10;;;;;;;9.95;6.28;;;;;;;;;;4820224;29;32437;-68
2021/12/11 10:30:44;;;;;;;7.18;6.47;;;;;;;;;;4816847;29;32559;-68
2021/12/11 10:33:13;;;;;;;6.40;5.90;;;;;;;;;;4817573;29;32501;-69
2021/12/11 10:35:47;;;;;;;6.30;5.80;;;;;;;;;;4818288;29;32475;-68
2021/12/11 10:38:16;;;;;;;6.40;5.90;;;;;;;;;;4820311;29;35787;-69
2021/12/11 10:40:49;;;;;;;6.05;5.55;;;;;;;;;;4815372;29;32514;-69
2021/12/11 10:43:22;;;;;;;7.70;6.70;;;;;;;;;;4818803;29;32622;-68
2021/12/11 10:45:53;;;;;;;5.53;5.18;;;;;;;;;;4820316;29;32458;-68
2021/12/11 10:48:26;;;;;;;6.13;5.68;;;;;;;;;;4819957;29;34823;-68
2021/12/11 10:51:00;;;;;;;7.57;5.97;;;;;;;;;;4819964;29;32494;-69
2021/12/11 10:53:31;;;;;;;7.13;6.43;;;;;;;;;;4819207;29;32659;-68
2021/12/11 10:56:01;;;;;;;6.97;6.25;;;;;;;;;;4820690;29;32641;-68
2021/12/11 10:58:36;;;;;;;10.45;9.48;;;;;;;;;;4821166;29;32417;-68
2021/12/11 11:01:08;;;;;;;19.88;12.20;;;;;;;;;;4820800;29;34939;-68
2021/12/11 11:03:40;;;;;;;12.82;11.13;;;;;;;;;;4820815;29;32740;-69
2021/12/11 11:06:10;;;;;;;10.73;9.80;;;;;;;;;;4820575;29;32574;-68
2021/12/11 11:08:38;;;;;;;11.38;10.27;;;;;;;;;;4820599;29;32623;-68
2021/12/11 11:11:12;;;;;;;11.85;10.65;;;;;;;;;;4817352;29;35729;-70
2021/12/11 11:13:41;;;;;;;15.15;11.00;;;;;;;;;;4815855;29;32483;-68
2021/12/11 11:16:09;;;;;;;13.35;9.90;;;;;;;;;;4808446;29;32982;-69
2021/12/11 11:18:38;;;;;;;11.57;8.43;;;;;;;;;;4818289;29;32957;-69
2021/12/11 11:21:15;;;;;;;10.07;8.48;;;;;;;;;;4807741;29;32503;-69
2021/12/11 11:23:46;;;;;;;11.10;9.80;;;;;;;;;;4806583;29;35100;-69
2021/12/11 11:26:19;;;;;;;11.55;10.32;;;;;;;;;;4806730;29;32472;-69
2021/12/11 11:28:47;;;;;;;11.50;9.40;;;;;;;;;;4805877;29;32510;-68
2021/12/11 11:31:19;;;;;;;9.82;8.95;;;;;;;;;;4807136;29;32412;-69
2021/12/11 11:33:48;;;;;;;10.48;8.20;;;;;;;;;;4806909;29;35122;-70
2021/12/11 11:36:24;;;;;;;9.98;7.57;;;;;;;;;;4806891;29;32376;-70
2021/12/11 11:38:56;;;;;;;9.75;7.05;;;;;;;;;;4803710;29;32619;-69
2021/12/11 11:41:27;;;;;;;12.32;9.68;;;;;;;;;;4807101;29;32539;-69
2021/12/11 11:43:56;;;;;;;18.27;11.70;;;;;;;;;;4807401;29;32550;-69
2021/12/11 11:46:24;;;;;;;16.30;13.13;;;;;;;;;;4806257;29;34863;-69
2021/12/11 11:48:58;;;;;;;14.75;13.10;;;;;;;;;;4807184;29;32480;-69
2021/12/11 11:51:33;;;;;;;16.02;12.25;;;;;;;;;;4806249;29;32530;-68
2021/12/11 11:54:03;;;;;;;18.67;12.07;;;;;;;;;;4807979;29;32597;-69
2021/12/11 11:56:34;;;;;;;14.40;12.90;;;;;;;;;;4807361;29;34121;-68
2021/12/11 11:59:03;;;;;;;;;;;;;;;;;;4807919;29;32790;-69
2021/12/11 12:01:38;;;;;;;20.77;14.80;;;;;;;;;;4807608;29;32454;-69
2021/12/11 12:04:11;;;;;;;19.00;13.73;;;;;;;;;;4808364;29;32492;-69
2021/12/11 12:06:41;;;;;;;18.42;13.50;;;;;;;;;;4808130;29;32545;-68
2021/12/11 12:09:13;;;;;;;18.60;15.23;;;;;;;;;;4806816;29;35562;-68
2021/12/11 12:11:42;;;;;;;19.85;15.52;;;;;;;;;;4801558;29;32640;-68
2021/12/11 12:14:15;;;;;;;20.73;14.23;;;;;;;;;;4807437;29;32678;-68
2021/12/11 12:16:45;;;;;;;17.15;13.38;;;;;;;;;;4807513;29;32483;-68
2021/12/11 12:19:14;;;;;;;19.50;15.40;;;;;;;;;;4802118;29;34068;-68
2021/12/11 12:21:47;;;;;;;21.38;15.00;;;;;;;;;;4810981;29;33293;-67
2021/12/11 12:24:17;;;;;;;14.75;13.25;;;;;;;;;;4825358;29;32570;-68
2021/12/11 12:26:45;;;;;;;19.35;14.43;;;;;;;;;;4826408;29;32272;-68
2021/12/11 12:29:16;;;;;;;28.80;19.50;;;;;;;;;;4826046;29;32327;-68
2021/12/11 12:31:48;;;;;;;29.92;20.77;;;;;;;;;;4824314;29;34648;-69
2021/12/11 12:34:17;;;;;;;35.15;23.83;;;;;;;;;;4825759;29;32924;-68
2021/12/11 12:36:46;;;;;;;26.08;21.30;;;;;;;;;;4825969;29;32365;-70
2021/12/11 12:39:17;;;;;;;31.55;22.38;;;;;;;;;;4825309;29;33081;-69
2021/12/11 12:41:56;;;;;;;33.50;22.80;;;;;;;;;;4825393;29;34070;-69
2021/12/11 12:44:26;;;;;;;32.10;21.95;;;;;;;;;;4825264;29;32728;-69
2021/12/11 12:46:57;;;;;;;31.80;22.38;;;;;;;;;;4825629;29;32724;-69
2021/12/11 12:49:31;;;;;;;44.17;23.67;;;;;;;;;;4825263;29;32642;-67
2021/12/11 12:52:08;;;;;;;27.02;19.45;;;;;;;;;;4825403;29;32918;-68
2021/12/11 12:54:36;;;;;;;23.70;14.95;;;;;;;;;;4826058;29;34485;-69
2021/12/11 12:57:15;;;;;;;15.80;12.98;;;;;;;;;;4825239;29;32861;-69
2021/12/11 12:59:51;;;;;;;19.88;12.93;;;;;;;;;;4818058;29;32913;-68
2021/12/11 13:02:23;;;;;;;15.25;12.25;;;;;;;;;;4825671;29;32892;-69
2021/12/11 13:04:55;;;;;;;20.50;11.15;;;;;;;;;;4825133;29;35257;-69
2021/12/11 13:07:25;;;;;;;12.82;10.27;;;;;;;;;;4825130;29;32739;-69
2021/12/11 13:09:57;;;;;;;9.75;8.57;;;;;;;;;;4825063;29;32532;-69
2021/12/11 13:12:31;;;;;;;10.25;8.45;;;;;;;;;;4825526;29;32579;-68
2021/12/11 13:15:05;;;;;;;12.15;8.88;;;;;;;;;;4821438;29;32558;-69
2021/12/11 13:17:38;;;;;;;11.23;9.18;;;;;;;;;;4825887;29;34067;-69
2021/12/11 13:20:14;;;;;;;14.32;10.18;;;;;;;;;;4820900;29;32448;-68
2021/12/11 13:22:46;;;;;;;14.13;10.75;;;;;;;;;;4824811;29;32377;-68
2021/12/11 13:25:20;;;;;;;15.10;9.88;;;;;;;;;;4825443;29;32434;-69
2021/12/11 13:27:49;;;;;;;17.13;11.20;;;;;;;;;;4825103;29;34376;-69
2021/12/11 13:30:22;;;;;;;15.70;11.48;;;;;;;;;;4825020;29;32504;-68
2021/12/11 13:32:50;;;;;;;15.35;10.80;;;;;;;;;;4824736;29;32599;-69
2021/12/11 13:35:24;;;;;;;12.15;10.40;;;;;;;;;;4823437;29;32363;-68
2021/12/11 13:37:54;;;;;;;12.75;9.20;;;;;;;;;;4824201;29;32814;-68
2021/12/11 13:40:26;;;;;;;11.13;8.73;;;;;;;;;;4824323;29;35186;-69
2021/12/11 13:42:54;;;;;;;17.92;10.10;;;;;;;;;;4824788;29;33273;-69
2021/12/11 13:45:27;;;;;;;10.45;8.27;;;;;;;;;;4823235;29;32634;-70
2021/12/11 13:47:55;;;;;;;9.65;8.45;;;;;;;;;;4821759;29;32613;-68
2021/12/11 13:50:28;;;;;;;11.23;8.70;;;;;;;;;;4824687;29;34235;-69
2021/12/11 13:52:59;;;;;;;9.13;7.63;;;;;;;;;;4824319;29;32476;-68
2021/12/11 13:55:28;;;;;;;11.98;7.70;;;;;;;;;;4824950;29;32531;-70
2021/12/11 13:57:57;;;;;;;9.55;8.52;;;;;;;;;;4820990;29;32352;-69
2021/12/11 14:00:29;;;;;;;9.68;8.52;;;;;;;;;;4824614;29;32468;-68
2021/12/11 14:02:57;;;;;;;12.57;9.48;;;;;;;;;;4824688;29;34686;-68
2021/12/11 14:05:27;;;;;;;14.20;10.05;;;;;;;;;;4824448;29;32456;-68
2021/12/11 14:07:57;;;;;;;11.90;10.10;;;;;;;;;;4821390;29;32454;-69
2021/12/11 14:10:32;;;;;;;12.98;10.38;;;;;;;;;;4823838;29;32493;-68
2021/12/11 14:13:03;;;;;;;16.35;12.30;;;;;;;;;;4822812;29;34306;-69
2021/12/11 14:15:31;;;;;;;;;;;;;;;;;;4824558;29;32551;-68
2021/12/11 14:18:00;;;;;;;17.35;13.48;;;;;;;;;;4825029;29;32475;-69
2021/12/11 14:20:32;;;;;;;19.65;13.70;;;;;;;;;;4823380;29;32655;-68
2021/12/11 14:23:08;;;;;;;19.80;13.73;;;;;;;;;;4818818;29;32468;-69
2021/12/11 14:25:37;;;;;;;20.05;13.82;;;;;;;;;;4817957;29;35715;-69
2021/12/11 14:28:08;;;;;;;18.52;12.68;;;;;;;;;;4824874;29;32412;-68
2021/12/11 14:30:40;;;;;;;13.20;11.90;;;;;;;;;;4824665;29;32506;-69
2021/12/11 14:33:08;;;;;;;24.63;15.68;;;;;;;;;;4824452;29;32486;-68
2021/12/11 14:35:39;;;;;;;23.25;16.02;;;;;;;;;;4824034;29;34106;-68
2021/12/11 14:38:11;;;;;;;18.70;13.90;;;;;;;;;;4824327;29;32504;-72
2021/12/11 14:40:42;;;;;;;18.83;14.15;;;;;;;;;;4824524;29;32523;-70
2021/12/11 14:43:14;;;;;;;18.85;13.85;;;;;;;;;;4823565;29;32598;-68
2021/12/11 14:45:42;;;;;;;;;;;;;;;;;;4818626;29;32425;-70
2021/12/11 14:48:12;;;;;;;20.77;12.75;;;;;;;;;;4824137;29;32560;-70
2021/12/11 14:50:45;;;;;;;16.13;12.82;;;;;;;;;;4823499;29;32690;-70
2021/12/11 14:53:22;;;;;;;15.52;12.40;;;;;;;;;;4823577;29;32914;-70
2021/12/11 14:55:54;;;;;;;12.32;11.02;;;;;;;;;;4825814;29;32502;-69
2021/12/11 14:58:21;;;;;;;;;;;;;;;;;;4827037;29;34253;-69
2021/12/11 15:00:56;;;;;;;11.20;9.52;;;;;;;;;;4826513;29;32498;-69
2021/12/11 15:03:24;;;;;;;13.15;9.60;;;;;;;;;;4827502;29;32603;-69
2021/12/11 15:05:52;;;;;;;12.88;11.43;;;;;;;;;;4826314;29;32593;-69
2021/12/11 15:08:28;;;;;;;21.30;13.60;;;;;;;;;;4827562;29;32782;-69
2021/12/11 15:11:01;;;;;;;22.42;14.13;;;;;;;;;;4823202;29;32530;-69
2021/12/11 15:13:29;;;;;;;20.85;14.10;;;;;;;;;;4826336;29;32581;-69
2021/12/11 15:15:59;;;;;;;15.30;12.23;;;;;;;;;;4827359;29;32581;-69